METAR Data
IDs: Format: Raw Decoded Include TAF

Data at: 0425 UTC 20 Oct 2018

PAQT 200353Z AUTO 05011KT 7SM OVC005 M02/M03 A2969 RMK AO2 SNB11E20 SLP055 P0000 T10221028 TSNO
PAQT 200253Z AUTO 05009KT 10SM OVC005 M02/M03 A2970 RMK AO2 SLP056 T10221028 56012 TSNO
PAQT 200153Z AUTO 05011KT 8SM OVC004 M02/M03 A2970 RMK AO2 SLP058 T10221028 TSNO
PAQT 200053Z AUTO 05010KT 9SM OVC004 M02/M03 A2972 RMK AO2 CIG 003V009 SLP063 T10221028 TSNO
PAQT 200002Z AUTO 04010KT 10SM OVC004 M02/M03 A2973 RMK AO2 T10221028 TSNO
PAQT 192353Z AUTO 05009KT 10SM OVC005 M02/M03 A2973 RMK AO2 SLP068 T10221028 11022 21067 58016 TSNO
PAQT 192343Z AUTO 04010KT 10SM OVC005 M02/M03 A2974 RMK AO2 T10221028 TSNO
PAQT 192321Z AUTO 06008KT 10SM OVC004 M02/M03 A2975 RMK AO2 CIG 002V007 T10221028 TSNO
PAQT 192253Z AUTO 05005KT 3SM BR OVC002 M02/M03 A2976 RMK AO2 SLP077 T10221028 TSNO
PAQT 192251Z AUTO 04006KT 3SM BR OVC002 M02/M03 A2976 RMK AO2 TSNO
PAQT 192245Z AUTO 06005KT 2SM BR OVC003 M03/M03 A2976 RMK AO2 T10281028 TSNO
PAQT 192230Z AUTO 07006KT 6SM BR OVC004 M03/M03 A2977 RMK AO2 T10281033 TSNO
PAQT 192153Z AUTO 05005KT 10SM BKN005 OVC080 M03/M04 A2977 RMK AO2 SLP083 T10331044 TSNO
PAQT 192148Z AUTO 06006KT 10SM BKN005 OVC080 M03/M04 A2978 RMK AO2 TSNO
PAQT 192053Z AUTO 04003KT 10SM BKN004 OVC080 M04/M06 A2979 RMK AO2 SLP088 T10441056 58013 TSNO
PAQT 192030Z AUTO 04003KT 10SM BKN003 OVC080 M05/M06 A2980 RMK AO2 T10501061 TSNO
PAQT 191953Z AUTO 00000KT 10SM SCT003 OVC080 M05/M06 A2980 RMK AO2 SLP092 T10501061 TSNO
PAQT 191853Z AUTO 00000KT 10SM OVC003 M07/M07 A2983 RMK AO2 SLP101 T10671067 TSNO
PAQT 191850Z AUTO 00000KT 10SM OVC003 M07/M07 A2983 RMK AO2 TSNO
PAQT 191823Z AUTO 18003KT 10SM OVC002 M07/M07 A2984 RMK AO2 T10671072 TSNO
PAQT 191753Z AUTO 17003KT 10SM OVC003 M07/M07 A2984 RMK AO2 SLP106 T10671072 11061 21094 58015 TSNO
PAQT 191653Z AUTO 11003KT 10SM BKN004 OVC080 M07/M07 A2986 RMK AO2 SLP111 T10671067 TSNO $
PAQT 191553Z AUTO 17003KT 10SM BKN003 OVC085 M06/M07 A2988 RMK AO2 SLP118 T10611067 TSNO $
PAQT 191528Z AUTO 00000KT 10SM BKN003 OVC085 M07/M07 A2988 RMK AO2 T10671067 TSNO $
PAQT 191453Z AUTO 29003KT 10SM SCT001 BKN070 OVC085 M07/M07 A2989 RMK AO2 SLP122 T10671072 TSNO $
PAQT 191425Z AUTO 00000KT 9SM SCT001 OVC070 M07/M07 A2990 RMK AO2 T10671072 TSNO $
PAQT 191416Z AUTO 00000KT 2SM BR SCT001 OVC070 M07/M07 A2990 RMK AO2 T10671072 TSNO $
PAQT 191401Z AUTO 28003KT 1 3/4SM BR OVC001 M07/M08 A2991 RMK AO2 T10721083 TSNO $
PAQT 191353Z AUTO 00000KT 3/4SM BR OVC004 M07/M08 A2991 RMK AO2 SLP128 T10721083 TSNO $
PAQT 191350Z AUTO 00000KT 1/2SM FZFG OVC004 M07/M08 A2991 RMK AO2 TSNO $
PAQT 191329Z AUTO 00000KT 1/4SM FZFG M08/M09 A2992 RMK AO2 T10831089 TSNO $
PAQT 191253Z AUTO 00000KT 1/4SM FZFG VV002 M08/M08 A2992 RMK AO2 SLP132 T10831083 TSNO $
PAQT 191237Z AUTO 00000KT 1/4SM FZFG OVC002 M08/M08 A2992 RMK AO2 T10831083 TSNO $
PAQT 191225Z AUTO 00000KT 1/2SM FZFG OVC003 M09/M09 A2992 RMK AO2 T10891094 TSNO $
PAQT 191153Z AUTO 23003KT 1/4SM FZFG VV002 M09/M09 A2993 RMK AO2 SLP136 7//// I6000 T10891094 11061 21089 58005 TSNO $
PAQT 191105Z AUTO 00000KT 1/2SM FZFG BKN002 OVC065 M08/M08 A2994 RMK AO2 T10781083 TSNO $
PAQT 191053Z AUTO 00000KT 1/2SM FZFG SCT002 OVC065 M08/M09 A2994 RMK AO2 SLP139 I1000 T10831089 TSNO $
PAQT 191021Z AUTO 00000KT 3/4SM BR BKN001 OVC085 M08/M08 A2994 RMK AO2 T10781083 TSNO $
PAQT 190953Z AUTO 00000KT 1/4SM FZFG FEW002 SCT070 OVC085 M07/M07 A2994 RMK AO2 SLP141 I1000 T10721072 TSNO $
PAQT 190908Z AUTO 00000KT 1/2SM FZFG SCT002 OVC075 M08/M08 A2994 RMK AO2 T10781083 TSNO $
PAQT 190901Z AUTO 00000KT 1SM BR BKN002 OVC075 M08/M08 A2995 RMK AO2 T10781083 TSNO $
PAQT 190853Z AUTO 00000KT 3/4SM BR SCT002 OVC075 M08/M08 A2995 RMK AO2 SLP141 I1000 I3000 T10781083 410221078 56001 TSNO $
PAQT 190851Z AUTO 00000KT 1/2SM FZFG SCT002 BKN075 M08/M08 A2995 RMK AO2 I1000 TSNO $
PAQT 190840Z AUTO 00000KT 1/2SM FZFG VV002 M08/M08 A2995 RMK AO2 I1000 T10781083 TSNO $
PAQT 190833Z AUTO 00000KT 1SM BR VV002 M08/M08 A2995 RMK AO2 I1000 T10781078 TSNO $
PAQT 190806Z AUTO 00000KT 1 3/4SM BR SCT080 M07/M07 A2995 RMK AO2 T10671072 TSNO $
PAQT 190753Z AUTO 00000KT 10SM BKN085 M07/M07 A2995 RMK AO2 SLP142 I1000 T10671072 TSNO $
PAQT 190732Z AUTO 00000KT 8SM FEW002 OVC085 M07/M07 A2995 RMK AO2 I1000 T10671067 TSNO $
PAQT 190723Z AUTO 00000KT 3SM BR BKN001 OVC085 M07/M07 A2995 RMK AO2 I1000 T10671067 TSNO $
PAQT 190711Z AUTO 00000KT 1SM BR SCT001 OVC090 M07/M07 A2995 RMK AO2 I1000 T10671072 TSNO $
PAQT 190700Z AUTO 17003KT 1/2SM FZFG BKN002 OVC090 M07/M07 A2995 RMK AO2 T10671072 TSNO $
PAQT 190653Z AUTO 17003KT 1SM BR BKN002 OVC090 M07/M07 A2995 RMK AO2 SLP143 T10721072 TSNO $
PAQT 190651Z AUTO 00000KT 1 1/2SM BR BKN002 OVC090 M07/M07 A2995 RMK AO2 TSNO $
PAQT 190553Z AUTO 00000KT 10SM OVC001 M06/M06 A2994 RMK AO2 SLP139 6//// T10611061 11028 21061 TSNO $
PAQT 190453Z AUTO 18003KT 10SM OVC002 M06/M06 A2995 RMK AO2 SLP142 T10611061 TSNO $
PAQT 190423Z AUTO 20004KT 10SM OVC002 M06/M06 A2994 RMK AO2 T10561056 TSNO $
PAQT 190409Z AUTO 21004KT 10SM BKN004 OVC100 M06/M06 A2995 RMK AO2 CIG 002V006 T10561061 TSNO $
PAQT 190400Z AUTO 18004KT 10SM BKN005 BKN100 M06/M06 A2994 RMK AO2 CIG 003V006 T10561056 TSNO $
PAQT 190353Z AUTO 00000KT 10SM SCT005 BKN100 BKN120 M06/M06 A2994 RMK AO2 SLP140 T10561056 TSNO $
PAQT 190253Z AUTO 00000KT 10SM BKN006 OVC050 M04/M05 A2994 RMK AO2 SLP140 6//// T10391050 53002 PWINO FZRANO TSNO $
PAQT 190153Z AUTO 00000KT 10SM M04/M04 A2993 RMK SLP137 T10391044 TSNO VIA AUTODIAL
PAQT 190115Z AUTO M04/M04 A2994 RMK T10391044 PWINO FZRANO TSNO $ VIA AUTODIAL
PAQT 190053Z AUTO 22003KT 10SM OVC006 M03/M04 A2994 RMK SLP138 T10331044 TSNO $ VIA AUTODIAL
PAQT 190038Z AUTO 00000KT 10SM BKN006 BKN050 M03/M04 A2993 RMK T10331044 TSNO $ VIA AUTODIAL
PAQT 182353Z AUTO 19004KT 10SM FEW006 SCT100 M03/M04 A2994 RMK SLP138 60000 I6000 T10331039 11022 21033 51009 TSNO $ VIA AUTODIAL
PAQT 182329Z AUTO 19004KT 10SM FEW006 BKN065 M03/M04 A2993 RMK T10281039 TSNO $ VIA AUTODIAL
PAQT 182253Z AUTO 18005KT 10SM OVC060 M03/M04 A2993 RMK UPB32E48 SLP136 P0000 T10281039 TSNO $ VIA AUTODIAL
PAQT 182153Z AUTO 15005KT 10SM OVC060 M03/M03 A2992 RMK AO2 SLP131 T10281033 TSNO $
PAQT 182053Z AUTO 14005KT 7SM SCT009 SCT022 OVC060 M03/M04 A2991 RMK AO2 UPB22E37 SLP129 P0000 60000 I1000 I3000 T10281039 TSNO $
PAQT 182019Z AUTO 12007KT 10SM BKN009 BKN055 OVC080 M03/M03 A2990 RMK AO2 T10281033 TSNO $
PAQT 182004Z AUTO 13005KT 10SM FEW008 BKN065 OVC080 M03/M04 A2990 RMK AO2 T10281039 TSNO $
PAQT 181953Z AUTO 12007KT 10SM OVC070 M03/M04 A2990 RMK AO2 SLP124 T10281039 TSNO $
PAQT 181927Z AUTO 12007KT 10SM FEW008 OVC070 M03/M04 A2989 RMK AO2 T10331039 TSNO $
PAQT 181853Z AUTO 11008KT 10SM OVC075 M03/M04 A2989 RMK AO2 SLP121 T10331039 TSNO $
PAQT 181753Z AUTO 09012KT 10SM OVC009 M03/M04 A2987 RMK AO2 SLP114 T10331039 11028 21033 53009 TSNO
PAQT 181653Z AUTO 10012KT 10SM OVC010 M03/M04 A2986 RMK AO2 SLP111 T10331039 TSNO